Latest Weather Observations for Beerburrum

IDQ60901

Issued at 9:55 pm EST Tuesday 21 October 2014 (issued every 10 minutes, with the page automatically refreshed every 10 minutes)

About weather observations | Map of Brisbane area stations | Latest observations for Brisbane area | Other Formats
Station Details ID: 040284 Name: BEERBURRUM FOREST STATION Lat: -26.96 Lon: 152.96 Height: 48.0 m
Data from the previous 72 hours. | See also: Recent months at Beerburrum
Date/Time
EST
Tmp

°C
App
Tmp
°C
Dew
Point
°C
Rel
Hum
%
Delta-T

°C
Wind Press
QNH
hPa
Press
MSL
hPa
Rain
since
9 am
mm
Dir
 
Spd
km/h
Gust
km/h
Spd
kts
Gust
kts
21/09:30pm 19.3 18.8 13.7 70 3.2 S 9 17 5 9 - - 0.2
21/09:00pm 19.4 18.6 14.0 71 3.1 S 11 26 6 14 - - 0.2
21/08:30pm 19.4 19.1 14.4 73 2.9 S 9 20 5 11 - - 0.2
21/08:00pm 19.2 18.8 14.2 73 2.9 S 9 19 5 10 - - 0.2
21/07:30pm 19.3 18.9 14.1 72 3.0 S 9 17 5 9 - - 0.2
21/07:00pm 19.5 19.2 14.3 72 3.0 S 9 19 5 10 - - 0.2
21/06:30pm 19.8 19.7 14.0 69 3.3 S 7 17 4 9 - - 0.2
21/06:00pm 20.3 19.7 14.7 70 3.3 SSE 11 24 6 13 - - 0.2
21/05:30pm 20.5 20.0 14.8 70 3.3 SSE 11 26 6 14 - - 0.2
21/05:00pm 20.8 19.9 14.9 69 3.5 SSE 13 32 7 17 - - 0.2
21/04:30pm 21.1 20.3 15.2 69 3.5 SSE 13 26 7 14 - - 0.2
21/04:00pm 21.6 20.8 15.2 67 3.8 SSE 13 28 7 15 - - 0.2
21/03:30pm 21.8 20.5 14.9 65 4.1 SSE 15 30 8 16 - - 0.2
21/03:00pm 23.0 22.4 15.6 63 4.5 SSE 13 24 7 13 - - 0.2
21/02:30pm 23.6 22.7 13.8 54 5.7 S 11 26 6 14 - - 0.2
21/02:00pm 23.9 22.2 13.7 53 6.0 SSE 15 32 8 17 - - 0.2
21/01:30pm 25.3 24.7 14.7 51 6.3 SE 11 24 6 13 - - 0.2
21/01:00pm 24.2 23.5 15.4 58 5.3 SE 13 30 7 16 - - 0.2
21/12:30pm 23.3 22.3 14.6 58 5.2 SSE 13 26 7 14 - - 0.0
21/12:00pm 22.8 22.4 16.1 66 4.1 SSE 13 28 7 15 - - 0.0
21/11:30am 21.7 21.6 16.0 70 3.4 SSE 11 26 6 14 - - 0.0
21/11:00am 20.3 19.9 15.3 73 3.0 S 11 20 6 11 - - 0.0
21/10:30am 19.7 19.5 15.6 77 2.4 SSE 11 17 6 9 - - 0.0
21/10:00am 19.4 20.1 16.2 82 1.9 S 7 19 4 10 - - 0.0
21/09:30am 18.9 19.8 16.7 87 1.3 S 7 17 4 9 - - 0.0
21/09:00am 18.7 20.0 17.0 90 1.0 SE 6 11 3 6 - - 3.0
21/08:30am 18.4 19.6 16.9 91 0.9 SSE 6 15 3 8 - - 3.0
21/08:00am 18.0 19.5 16.7 92 0.8 ESE 4 13 2 7 - - 2.6
21/07:30am 17.7 19.9 16.4 92 0.8 CALM 0 0 0 0 - - 2.2
21/07:00am 17.3 18.9 16.0 92 0.8 ESE 2 7 1 4 - - 2.0
21/06:30am 16.9 17.9 15.4 91 0.9 ESE 4 11 2 6 - - 2.0
21/06:00am 16.6 17.0 14.8 89 1.0 SW 6 7 3 4 - - 0.0
21/05:30am 15.7 16.3 14.2 91 0.9 SW 4 7 2 4 - - 0.0
21/05:00am 14.7 14.6 13.4 92 0.7 SW 6 7 3 4 - - 0.0
21/04:30am 13.8 14.1 12.2 90 0.9 SW 2 7 1 4 - - 0.0
21/04:00am 14.3 15.1 12.7 90 0.9 CALM 0 0 0 0 - - 0.0
21/03:30am 14.3 15.1 12.5 89 1.0 CALM 0 0 0 0 - - 0.0
21/03:00am 14.3 14.8 12.7 90 0.9 SW 2 6 1 3 - - 0.0
21/02:30am 13.6 14.2 12.0 90 0.9 CALM 0 0 0 0 - - 0.0
21/02:00am 13.7 14.3 11.9 89 1.0 CALM 0 6 0 3 - - 0.0
21/01:30am 14.1 14.7 12.0 87 1.1 CALM 0 0 0 0 - - 0.0
21/01:00am 15.0 15.8 12.5 85 1.4 CALM 0 0 0 0 - - 0.0
21/12:30am 15.5 16.4 12.8 84 1.5 CALM 0 4 0 2 - - 0.0
21/12:00am 15.6 16.6 13.1 85 1.4 CALM 0 0 0 0 - - 0.0
 
Date/Time
EST
Tmp

°C
App
Tmp
°C
Dew
Point
°C
Rel
Hum
%
Delta-T

°C
Wind Press
QNH
hPa
Press
MSL
hPa
Rain
since
9 am
mm
Dir
 
Spd
km/h
Gust
km/h
Spd
kts
Gust
kts
20/11:30pm 15.4 16.0 13.1 86 1.3 SW 2 6 1 3 - - 0.0
20/11:00pm 15.4 16.2 12.7 84 1.5 CALM 0 0 0 0 - - 0.0
20/10:30pm 15.6 16.6 13.1 85 1.4 CALM 0 0 0 0 - - 0.0
20/10:00pm 15.2 16.0 12.7 85 1.4 CALM 0 0 0 0 - - 0.0
20/09:30pm 14.6 15.4 12.5 87 1.1 CALM 0 0 0 0 - - 0.0
20/09:00pm 14.9 14.9 12.4 85 1.4 SW 4 6 2 3 - - 0.0
20/08:30pm 15.5 16.3 12.6 83 1.6 CALM 0 0 0 0 - - 0.0
20/08:00pm 15.7 16.5 12.6 82 1.7 CALM 0 0 0 0 - - 0.0
20/07:30pm 16.2 17.0 12.4 78 2.1 CALM 0 0 0 0 - - 0.0
20/07:00pm 17.1 17.9 12.4 74 2.6 CALM 0 0 0 0 - - 0.0
20/06:30pm 18.0 18.7 12.2 69 3.2 CALM 0 0 0 0 - - 0.0
20/06:00pm 19.6 20.3 12.1 62 4.2 CALM 0 0 0 0 - - 0.0
20/05:30pm 21.3 21.1 11.9 55 5.3 E 4 7 2 4 - - 0.0
20/05:00pm 22.6 21.8 11.7 50 6.1 NE 7 13 4 7 - - 0.0
20/04:30pm 23.5 22.6 11.2 46 6.9 ENE 7 13 4 7 - - 0.0
20/04:00pm 23.9 22.7 10.2 42 7.6 E 7 15 4 8 - - 0.0
20/03:30pm 24.6 23.9 11.9 45 7.2 E 7 11 4 6 - - 0.0
20/03:00pm 24.9 23.6 11.1 42 7.8 ENE 9 17 5 9 - - 0.0
20/02:30pm 25.1 24.0 12.0 44 7.5 NE 9 17 5 9 - - 0.0
20/02:00pm 25.6 24.4 11.7 42 7.9 E 9 17 5 9 - - 0.0
20/01:30pm 25.6 24.2 12.1 43 7.8 E 11 17 6 9 - - 0.0
20/01:00pm 26.0 24.8 11.7 41 8.2 ENE 9 15 5 8 - - 0.0
20/12:30pm 25.5 23.6 8.9 35 9.0 NNE 9 15 5 8 - - 0.0
20/12:00pm 25.3 23.8 9.2 36 8.8 N 7 13 4 7 - - 0.0
20/11:30am 24.3 23.0 9.8 40 8.0 SE 7 17 4 9 - - 0.0
20/11:00am 24.3 23.6 11.9 45 7.1 NE 7 13 4 7 - - 0.0
20/10:30am 23.4 22.5 10.5 44 7.1 ESE 6 11 3 6 - - 0.0
20/10:00am 22.9 21.4 10.7 46 6.7 ENE 9 17 5 9 - - 0.0
20/09:30am 22.3 21.2 10.8 48 6.4 NNE 7 13 4 7 - - 0.0
20/09:00am 21.8 21.0 10.9 50 6.0 ENE 6 13 3 7 - - 0.0
20/08:30am 21.3 20.2 10.8 51 5.8 ENE 7 13 4 7 - - 0.0
20/08:00am 20.8 20.6 11.7 56 5.1 ESE 4 9 2 5 - - 0.0
20/07:30am 19.4 20.2 13.8 70 3.2 SW 2 6 1 3 - - 0.0
20/07:00am 17.7 18.8 13.6 77 2.3 CALM 0 0 0 0 - - 0.0
20/06:30am 14.4 15.4 13.1 92 0.7 CALM 0 0 0 0 - - 0.0
20/06:00am 11.5 11.7 10.6 94 0.5 CALM 0 0 0 0 - - 0.0
20/05:30am 10.7 10.6 9.6 93 0.6 CALM 0 0 0 0 - - 0.0
20/05:00am 10.8 10.8 9.7 93 0.6 CALM 0 0 0 0 - - 0.0
20/04:30am 11.1 10.8 10.0 93 0.6 SW 2 6 1 3 - - 0.0
20/04:00am 11.2 11.2 9.9 92 0.7 CALM 0 0 0 0 - - 0.0
20/03:30am 11.4 11.5 10.1 92 0.7 CALM 0 0 0 0 - - 0.0
20/03:00am 11.6 11.7 10.3 92 0.7 CALM 0 0 0 0 - - 0.0
20/02:30am 12.0 12.2 10.7 92 0.7 CALM 0 0 0 0 - - 0.0
20/02:00am 12.0 12.2 10.6 91 0.7 CALM 0 0 0 0 - - 0.0
20/01:30am 12.4 12.7 10.8 90 0.8 CALM 0 0 0 0 - - 0.0
20/01:00am 12.9 13.3 11.1 89 0.9 CALM 0 0 0 0 - - 0.0
20/12:30am 13.4 13.9 11.5 88 1.0 CALM 0 0 0 0 - - 0.0
20/12:00am 13.6 13.8 12.0 90 0.9 SSE 2 7 1 4 - - 0.0
 
Date/Time
EST
Tmp

°C
App
Tmp
°C
Dew
Point
°C
Rel
Hum
%
Delta-T

°C
Wind Press
QNH
hPa
Press
MSL
hPa
Rain
since
9 am
mm
Dir
 
Spd
km/h
Gust
km/h
Spd
kts
Gust
kts
19/11:30pm 13.1 13.6 11.5 90 0.9 CALM 0 0 0 0 - - 0.0
19/11:00pm 13.3 13.7 11.4 88 1.0 CALM 0 0 0 0 - - 0.0
19/10:30pm 13.6 14.1 11.5 87 1.1 CALM 0 0 0 0 - - 0.0
19/10:00pm 14.4 15.0 11.9 85 1.3 CALM 0 0 0 0 - - 0.0
19/09:30pm 14.5 15.0 11.6 83 1.6 CALM 0 0 0 0 - - 0.0
19/09:00pm 15.1 15.6 11.7 80 1.8 CALM 0 0 0 0 - - 0.0
19/08:30pm 15.6 16.2 11.8 78 2.1 CALM 0 0 0 0 - - 0.0
19/08:00pm 16.1 16.8 12.1 77 2.2 CALM 0 0 0 0 - - 0.0
19/07:30pm 16.6 17.4 12.4 76 2.3 CALM 0 0 0 0 - - 0.0
19/07:00pm 17.3 17.9 11.8 70 3.0 CALM 0 0 0 0 - - 0.0
19/06:30pm 18.0 18.6 11.8 67 3.4 CALM 0 0 0 0 - - 0.0
19/06:00pm 19.6 19.1 11.9 61 4.3 ESE 6 11 3 6 - - 0.0
19/05:30pm 20.6 20.1 12.1 58 4.8 ESE 6 9 3 5 - - 0.0
19/05:00pm 21.4 20.6 11.7 54 5.4 E 7 17 4 9 - - 0.0
19/04:30pm 22.6 21.4 11.7 50 6.1 SE 9 15 5 8 - - 0.0
19/04:00pm 23.7 23.1 12.4 49 6.5 ESE 7 17 4 9 - - 0.0
19/03:30pm 24.5 23.7 12.8 48 6.8 E 9 17 5 9 - - 0.0
19/03:00pm 24.5 23.3 11.5 44 7.4 SE 9 19 5 10 - - 0.0
19/02:30pm 25.0 23.6 10.8 41 8.0 SE 9 19 5 10 - - 0.0
19/02:00pm 24.8 22.8 8.7 36 8.7 SE 9 17 5 9 - - 0.0
19/01:30pm 24.8 23.0 9.5 38 8.4 ESE 9 17 5 9 - - 0.0
19/01:00pm 24.7 23.1 10.2 40 8.0 SE 9 20 5 11 - - 0.0
19/12:30pm 24.6 23.3 11.2 43 7.5 SE 9 15 5 8 - - 0.0
19/12:00pm 24.7 22.8 10.6 41 7.9 E 11 19 6 10 - - 0.0
19/11:30am 24.3 22.6 9.8 40 8.0 SSE 9 19 5 10 - - 0.0
19/11:00am 24.3 22.4 9.1 38 8.2 SE 9 22 5 12 - - 0.0
19/10:30am 23.9 21.8 9.9 41 7.7 ESE 11 20 6 11 - - 0.0
19/10:00am 23.8 22.7 11.8 47 6.8 ESE 9 19 5 10 - - 0.0
19/09:30am 23.3 21.8 12.0 49 6.4 SE 11 19 6 10 - - 0.0
19/09:00am 22.5 21.2 12.4 52 5.7 SE 11 22 6 12 - - 0.8
19/08:30am 22.3 21.5 12.8 55 5.4 S 9 20 5 11 - - 0.8
19/08:00am 20.7 20.4 13.4 63 4.2 S 7 13 4 7 - - 0.8
19/07:30am 20.0 20.0 13.7 67 3.6 SSW 6 11 3 6 - - 0.8
19/07:00am 18.6 18.7 13.9 74 2.7 SSW 6 9 3 5 - - 0.8
19/06:30am 17.0 17.5 14.1 83 1.7 SW 4 7 2 4 - - 0.8
19/06:00am 15.4 16.7 14.1 92 0.7 CALM 0 0 0 0 - - 0.8
19/05:30am 14.7 15.0 13.4 92 0.7 SW 4 6 2 3 - - 0.8
19/05:00am 14.4 15.3 13.0 91 0.8 CALM 0 0 0 0 - - 0.8
19/04:30am 14.7 15.0 13.4 92 0.7 SSW 4 6 2 3 - - 0.8
19/04:00am 14.8 14.7 13.3 91 0.8 SSW 6 7 3 4 - - 0.8
19/03:30am 15.3 16.6 14.0 92 0.7 CALM 0 0 0 0 - - 0.8
19/03:00am 15.3 16.6 14.0 92 0.7 CALM 0 0 0 0 - - 0.8
19/02:30am 15.2 15.7 13.9 92 0.7 SW 4 7 2 4 - - 0.8
19/02:00am 15.1 16.1 13.3 89 1.0 CALM 0 0 0 0 - - 0.8
19/01:30am 15.9 17.3 14.3 90 0.9 CALM 0 0 0 0 - - 0.8
19/01:00am 16.2 17.2 14.4 89 1.0 SSW 2 7 1 4 - - 0.2
19/12:30am 15.8 17.1 14.0 89 1.0 CALM 0 0 0 0 - - 0.2
19/12:00am 15.9 16.8 13.9 88 1.1 SW 2 7 1 4 - - 0.2
 
Date/Time
EST
Tmp

°C
App
Tmp
°C
Dew
Point
°C
Rel
Hum
%
Delta-T

°C
Wind Press
QNH
hPa
Press
MSL
hPa
Rain
since
9 am
mm
Dir
 
Spd
km/h
Gust
km/h
Spd
kts
Gust
kts
18/11:30pm 16.0 16.4 13.8 87 1.2 SW 4 6 2 3 - - 0.2
18/11:00pm 16.3 17.3 14.3 88 1.1 S 2 6 1 3 - - 0.2
18/10:30pm 16.3 17.6 14.1 87 1.3 CALM 0 0 0 0 - - 0.2
18/10:00pm 16.6 17.8 13.9 84 1.5 CALM 0 0 0 0 - - 0.2

Latest Capital City Observations: Canberra | Sydney | Melbourne | Brisbane | Adelaide | Perth | Hobart | Darwin

Other Formats:

Comma delimited format used in spreadsheet applications
http://www.bom.gov.au/fwo/IDQ60901/IDQ60901.95566.axf

JavaScript Object Notation format (JSON) in row-major order
http://www.bom.gov.au/fwo/IDQ60901/IDQ60901.95566.json